sensor_id;sensor_type;location;lat;lon;timestamp;pressure;altitude;pressure_sealevel;temperature;humidity
56944;BME280;42848;42.524;12.052;2023-03-22T00:01:29;96672.22;;;11.26;100.00
56944;BME280;42848;42.524;12.052;2023-03-22T00:03:56;96673.16;;;11.21;100.00
56944;BME280;42848;42.524;12.052;2023-03-22T00:06:22;96670.53;;;11.42;100.00
56944;BME280;42848;42.524;12.052;2023-03-22T00:08:49;96678.56;;;11.30;100.00
56944;BME280;42848;42.524;12.052;2023-03-22T00:11:17;96677.66;;;11.26;100.00
56944;BME280;42848;42.524;12.052;2023-03-22T00:13:43;96673.56;;;11.40;100.00
56944;BME280;42848;42.524;12.052;2023-03-22T00:16:12;96668.66;;;11.34;100.00
56944;BME280;42848;42.524;12.052;2023-03-22T00:18:39;96668.50;;;11.30;100.00
56944;BME280;42848;42.524;12.052;2023-03-22T00:21:10;96672.38;;;11.21;100.00
56944;BME280;42848;42.524;12.052;2023-03-22T00:23:38;96668.72;;;11.17;100.00
56944;BME280;42848;42.524;12.052;2023-03-22T00:26:05;96671.56;;;11.29;100.00
56944;BME280;42848;42.524;12.052;2023-03-22T00:28:31;96669.34;;;11.14;100.00
56944;BME280;42848;42.524;12.052;2023-03-22T00:30:59;96671.44;;;11.17;100.00
56944;BME280;42848;42.524;12.052;2023-03-22T00:33:29;96668.59;;;10.96;100.00
56944;BME280;42848;42.524;12.052;2023-03-22T00:36:02;96672.78;;;10.85;100.00
56944;BME280;42848;42.524;12.052;2023-03-22T00:38:28;96664.13;;;11.00;100.00
56944;BME280;42848;42.524;12.052;2023-03-22T00:43:34;96655.53;;;10.89;100.00
56944;BME280;42848;42.524;12.052;2023-03-22T00:46:01;96649.78;;;10.91;100.00
56944;BME280;42848;42.524;12.052;2023-03-22T00:48:26;96658.41;;;10.93;100.00
56944;BME280;42848;42.524;12.052;2023-03-22T00:50:52;96659.19;;;10.93;100.00
56944;BME280;42848;42.524;12.052;2023-03-22T00:53:18;96652.50;;;10.82;100.00
56944;BME280;42848;42.524;12.052;2023-03-22T00:55:43;96656.81;;;10.83;100.00
56944;BME280;42848;42.524;12.052;2023-03-22T00:58:09;96649.97;;;10.77;100.00
56944;BME280;42848;42.524;12.052;2023-03-22T01:00:35;96654.88;;;10.92;100.00
56944;BME280;42848;42.524;12.052;2023-03-22T01:03:01;96650.59;;;10.82;100.00
56944;BME280;42848;42.524;12.052;2023-03-22T01:05:32;96637.81;;;10.83;100.00
56944;BME280;42848;42.524;12.052;2023-03-22T01:08:01;96640.38;;;10.79;100.00
56944;BME280;42848;42.524;12.052;2023-03-22T01:10:34;96632.41;;;10.74;100.00
56944;BME280;42848;42.524;12.052;2023-03-22T01:13:00;96637.53;;;10.67;100.00
56944;BME280;42848;42.524;12.052;2023-03-22T01:15:26;96643.91;;;10.80;100.00
56944;BME280;42848;42.524;12.052;2023-03-22T01:17:52;96637.16;;;10.86;100.00
56944;BME280;42848;42.524;12.052;2023-03-22T01:20:17;96634.94;;;10.88;100.00
56944;BME280;42848;42.524;12.052;2023-03-22T01:22:43;96638.59;;;10.83;100.00
56944;BME280;42848;42.524;12.052;2023-03-22T01:25:09;96635.13;;;10.66;100.00
56944;BME280;42848;42.524;12.052;2023-03-22T01:27:35;96638.78;;;10.78;100.00
56944;BME280;42848;42.524;12.052;2023-03-22T01:30:02;96633.19;;;10.75;100.00
56944;BME280;42848;42.524;12.052;2023-03-22T01:32:28;96637.97;;;10.78;100.00
56944;BME280;42848;42.524;12.052;2023-03-22T01:34:54;96641.00;;;10.76;100.00
56944;BME280;42848;42.524;12.052;2023-03-22T01:37:20;96636.72;;;10.75;100.00
56944;BME280;42848;42.524;12.052;2023-03-22T01:39:46;96636.22;;;10.82;100.00
56944;BME280;42848;42.524;12.052;2023-03-22T01:42:13;96639.25;;;10.89;100.00
56944;BME280;42848;42.524;12.052;2023-03-22T01:44:42;96638.94;;;10.82;100.00
56944;BME280;42848;42.524;12.052;2023-03-22T01:47:09;96641.31;;;10.92;100.00
56944;BME280;42848;42.524;12.052;2023-03-22T01:49:36;96642.03;;;10.54;100.00
56944;BME280;42848;42.524;12.052;2023-03-22T01:52:07;96642.81;;;10.64;100.00
56944;BME280;42848;42.524;12.052;2023-03-22T01:54:45;96645.84;;;10.71;100.00
56944;BME280;42848;42.524;12.052;2023-03-22T01:57:12;96637.06;;;10.57;100.00
56944;BME280;42848;42.524;12.052;2023-03-22T01:59:40;96634.34;;;10.65;100.00
56944;BME280;42848;42.524;12.052;2023-03-22T02:02:07;96626.22;;;10.48;100.00
56944;BME280;42848;42.524;12.052;2023-03-22T02:04:36;96632.59;;;10.61;100.00
56944;BME280;42848;42.524;12.052;2023-03-22T02:07:10;96630.84;;;10.47;100.00
56944;BME280;42848;42.524;12.052;2023-03-22T02:09:40;96632.41;;;10.66;100.00
56944;BME280;42848;42.524;12.052;2023-03-22T02:12:19;96634.34;;;10.57;100.00
56944;BME280;42848;42.524;12.052;2023-03-22T02:29:06;96628.91;;;10.57;100.00
56944;BME280;42848;42.524;12.052;2023-03-22T02:37:36;96636.47;;;10.42;100.00
56944;BME280;42848;42.524;12.052;2023-03-22T02:40:51;96634.19;;;10.70;100.00
56944;BME280;42848;42.524;12.052;2023-03-22T02:43:50;96627.34;;;10.38;100.00
56944;BME280;42848;42.524;12.052;2023-03-22T02:46:36;96630.84;;;10.30;100.00
56944;BME280;42848;42.524;12.052;2023-03-22T02:52:11;96632.28;;;10.62;100.00
56944;BME280;42848;42.524;12.052;2023-03-22T02:57:34;96632.44;;;10.57;100.00
56944;BME280;42848;42.524;12.052;2023-03-22T03:00:04;96627.31;;;10.56;100.00
56944;BME280;42848;42.524;12.052;2023-03-22T03:02:43;96618.72;;;10.53;100.00
56944;BME280;42848;42.524;12.052;2023-03-22T03:05:13;96623.97;;;10.41;100.00
56944;BME280;42848;42.524;12.052;2023-03-22T03:07:43;96622.38;;;10.40;100.00
56944;BME280;42848;42.524;12.052;2023-03-22T03:10:14;96629.41;;;10.41;100.00
56944;BME280;42848;42.524;12.052;2023-03-22T03:12:40;96622.84;;;10.51;100.00
56944;BME280;42848;42.524;12.052;2023-03-22T03:15:16;96626.56;;;10.29;100.00
56944;BME280;42848;42.524;12.052;2023-03-22T03:23:15;96625.59;;;10.42;100.00
56944;BME280;42848;42.524;12.052;2023-03-22T03:25:58;96629.91;;;10.52;100.00
56944;BME280;42848;42.524;12.052;2023-03-22T03:31:25;96630.47;;;10.75;100.00
56944;BME280;42848;42.524;12.052;2023-03-22T03:36:34;96626.81;;;10.79;100.00
56944;BME280;42848;42.524;12.052;2023-03-22T03:39:05;96634.66;;;10.64;100.00
56944;BME280;42848;42.524;12.052;2023-03-22T03:41:33;96637.19;;;10.69;100.00
56944;BME280;42848;42.524;12.052;2023-03-22T03:44:01;96628.25;;;10.60;100.00
56944;BME280;42848;42.524;12.052;2023-03-22T03:46:27;96639.78;;;10.39;100.00
56944;BME280;42848;42.524;12.052;2023-03-22T03:48:56;96635.13;;;10.66;100.00
56944;BME280;42848;42.524;12.052;2023-03-22T03:51:23;96631.19;;;10.37;100.00
56944;BME280;42848;42.524;12.052;2023-03-22T03:53:50;96635.47;;;10.64;100.00
56944;BME280;42848;42.524;12.052;2023-03-22T03:56:15;96625.84;;;10.75;100.00
56944;BME280;42848;42.524;12.052;2023-03-22T03:58:41;96628.94;;;10.48;100.00
56944;BME280;42848;42.524;12.052;2023-03-22T04:01:07;96628.09;;;10.65;100.00
56944;BME280;42848;42.524;12.052;2023-03-22T04:03:32;96631.00;;;10.51;100.00
56944;BME280;42848;42.524;12.052;2023-03-22T04:05:58;96632.13;;;10.41;100.00
56944;BME280;42848;42.524;12.052;2023-03-22T04:08:25;96637.72;;;10.45;100.00
56944;BME280;42848;42.524;12.052;2023-03-22T04:10:51;96635.34;;;10.43;100.00
56944;BME280;42848;42.524;12.052;2023-03-22T04:13:18;96631.31;;;10.49;100.00
56944;BME280;42848;42.524;12.052;2023-03-22T04:15:46;96628.63;;;10.32;100.00
56944;BME280;42848;42.524;12.052;2023-03-22T04:18:12;96635.34;;;10.43;100.00
56944;BME280;42848;42.524;12.052;2023-03-22T04:20:38;96635.78;;;10.54;100.00
56944;BME280;42848;42.524;12.052;2023-03-22T04:23:08;96633.88;;;10.46;100.00
56944;BME280;42848;42.524;12.052;2023-03-22T04:25:36;96634.53;;;10.43;100.00
56944;BME280;42848;42.524;12.052;2023-03-22T04:28:03;96627.81;;;10.40;100.00
56944;BME280;42848;42.524;12.052;2023-03-22T04:30:29;96633.25;;;10.40;100.00
56944;BME280;42848;42.524;12.052;2023-03-22T04:33:02;96629.56;;;10.53;100.00
56944;BME280;42848;42.524;12.052;2023-03-22T04:35:32;96646.47;;;10.33;100.00
56944;BME280;42848;42.524;12.052;2023-03-22T04:37:59;96636.56;;;10.11;100.00
56944;BME280;42848;42.524;12.052;2023-03-22T04:40:26;96640.25;;;9.98;100.00
56944;BME280;42848;42.524;12.052;2023-03-22T04:42:53;96638.47;;;10.02;100.00
56944;BME280;42848;42.524;12.052;2023-03-22T04:45:22;96636.88;;;9.92;100.00
56944;BME280;42848;42.524;12.052;2023-03-22T04:47:48;96635.28;;;9.91;100.00
56944;BME280;42848;42.524;12.052;2023-03-22T04:50:13;96633.69;;;9.90;100.00
56944;BME280;42848;42.524;12.052;2023-03-22T04:52:39;96642.00;;;10.03;100.00
56944;BME280;42848;42.524;12.052;2023-03-22T04:55:05;96643.13;;;10.10;100.00
56944;BME280;42848;42.524;12.052;2023-03-22T04:57:31;96643.25;;;10.05;100.00
56944;BME280;42848;42.524;12.052;2023-03-22T04:59:59;96634.84;;;10.07;100.00
56944;BME280;42848;42.524;12.052;2023-03-22T05:02:24;96650.94;;;10.12;100.00
56944;BME280;42848;42.524;12.052;2023-03-22T05:04:50;96641.03;;;9.98;100.00
56944;BME280;42848;42.524;12.052;2023-03-22T05:07:15;96646.28;;;9.86;100.00
56944;BME280;42848;42.524;12.052;2023-03-22T05:09:41;96645.16;;;9.79;100.00
56944;BME280;42848;42.524;12.052;2023-03-22T05:12:06;96645.63;;;9.72;100.00
56944;BME280;42848;42.524;12.052;2023-03-22T05:14:32;96646.78;;;9.88;100.00
56944;BME280;42848;42.524;12.052;2023-03-22T05:16:58;96644.53;;;9.90;100.00
56944;BME280;42848;42.524;12.052;2023-03-22T05:19:23;96639.94;;;10.00;100.00
56944;BME280;42848;42.524;12.052;2023-03-22T05:21:49;96646.16;;;10.09;100.00
56944;BME280;42848;42.524;12.052;2023-03-22T05:24:22;96649.50;;;10.14;100.00
56944;BME280;42848;42.524;12.052;2023-03-22T05:26:49;96648.84;;;9.91;100.00
56944;BME280;42848;42.524;12.052;2023-03-22T05:29:18;96653.78;;;9.89;100.00
56944;BME280;42848;42.524;12.052;2023-03-22T05:31:45;96652.34;;;9.83;100.00
56944;BME280;42848;42.524;12.052;2023-03-22T05:34:11;96663.66;;;9.85;100.00
56944;BME280;42848;42.524;12.052;2023-03-22T05:36:38;96660.84;;;10.08;100.00
56944;BME280;42848;42.524;12.052;2023-03-22T05:39:04;96670.38;;;10.14;100.00
56944;BME280;42848;42.524;12.052;2023-03-22T05:41:30;96669.50;;;10.44;100.00
56944;BME280;42848;42.524;12.052;2023-03-22T05:43:58;96668.84;;;10.47;100.00
56944;BME280;42848;42.524;12.052;2023-03-22T05:46:24;96675.25;;;10.34;100.00
56944;BME280;42848;42.524;12.052;2023-03-22T05:48:50;96675.84;;;10.31;100.00
56944;BME280;42848;42.524;12.052;2023-03-22T05:51:16;96676.03;;;10.35;100.00
56944;BME280;42848;42.524;12.052;2023-03-22T05:53:43;96669.16;;;10.37;100.00
56944;BME280;42848;42.524;12.052;2023-03-22T05:56:09;96668.19;;;10.50;100.00
56944;BME280;42848;42.524;12.052;2023-03-22T05:58:35;96671.69;;;10.60;100.00
56944;BME280;42848;42.524;12.052;2023-03-22T06:01:06;96671.69;;;10.68;100.00
56944;BME280;42848;42.524;12.052;2023-03-22T06:03:32;96675.25;;;10.34;100.00
56944;BME280;42848;42.524;12.052;2023-03-22T06:05:58;96671.22;;;10.58;100.00
56944;BME280;42848;42.524;12.052;2023-03-22T06:08:24;96672.34;;;10.57;100.00
56944;BME280;42848;42.524;12.052;2023-03-22T06:10:50;96674.25;;;10.65;100.00
56944;BME280;42848;42.524;12.052;2023-03-22T06:13:17;96675.06;;;10.57;100.00
56944;BME280;42848;42.524;12.052;2023-03-22T06:15:44;96672.34;;;10.57;100.00
56944;BME280;42848;42.524;12.052;2023-03-22T06:18:10;96679.84;;;10.51;100.00
56944;BME280;42848;42.524;12.052;2023-03-22T06:20:36;96681.75;;;10.50;100.00
56944;BME280;42848;42.524;12.052;2023-03-22T06:23:03;96680.50;;;10.39;100.00
56944;BME280;42848;42.524;12.052;2023-03-22T06:25:28;96679.38;;;10.49;100.00
56944;BME280;42848;42.524;12.052;2023-03-22T06:27:54;96681.28;;;10.66;100.00
56944;BME280;42848;42.524;12.052;2023-03-22T06:30:19;96683.50;;;10.81;100.00
56944;BME280;42848;42.524;12.052;2023-03-22T06:32:46;96690.19;;;10.92;100.00
56944;BME280;42848;42.524;12.052;2023-03-22T06:35:11;96688.31;;;10.67;100.00
56944;BME280;42848;42.524;12.052;2023-03-22T06:37:37;96694.06;;;10.57;100.00
56944;BME280;42848;42.524;12.052;2023-03-22T06:40:03;96694.22;;;10.60;100.00
56944;BME280;42848;42.524;12.052;2023-03-22T06:42:29;96702.84;;;10.79;100.00
56944;BME280;42848;42.524;12.052;2023-03-22T06:44:56;96706.19;;;10.68;100.00
56944;BME280;42848;42.524;12.052;2023-03-22T06:47:22;96705.06;;;10.77;100.00
56944;BME280;42848;42.524;12.052;2023-03-22T06:49:49;96706.03;;;10.81;100.00
56944;BME280;42848;42.524;12.052;2023-03-22T06:52:15;96702.97;;;10.83;100.00
56944;BME280;42848;42.524;12.052;2023-03-22T06:54:41;96719.59;;;10.90;100.00
56944;BME280;42848;42.524;12.052;2023-03-22T06:57:06;96707.41;;;10.96;100.00
56944;BME280;42848;42.524;12.052;2023-03-22T06:59:32;96709.59;;;11.29;100.00
56944;BME280;42848;42.524;12.052;2023-03-22T07:01:58;96711.19;;;11.30;100.00
56944;BME280;42848;42.524;12.052;2023-03-22T07:04:23;96710.84;;;11.40;100.00
56944;BME280;42848;42.524;12.052;2023-03-22T07:06:50;96714.56;;;11.27;100.00
56944;BME280;42848;42.524;12.052;2023-03-22T07:09:16;96710.88;;;11.23;100.00
56944;BME280;42848;42.524;12.052;2023-03-22T07:11:42;96711.97;;;11.39;100.00
56944;BME280;42848;42.524;12.052;2023-03-22T07:14:08;96717.44;;;11.68;100.00
56944;BME280;42848;42.524;12.052;2023-03-22T07:16:34;96721.16;;;11.64;100.00
56944;BME280;42848;42.524;12.052;2023-03-22T07:18:59;96725.19;;;11.49;100.00
56944;BME280;42848;42.524;12.052;2023-03-22T07:21:25;96716.06;;;11.54;100.00
56944;BME280;42848;42.524;12.052;2023-03-22T07:23:51;96725.00;;;11.63;100.00
56944;BME280;42848;42.524;12.052;2023-03-22T07:26:17;96719.72;;;11.58;100.00
56944;BME280;42848;42.524;12.052;2023-03-22T07:28:42;96723.97;;;11.76;100.00
56944;BME280;42848;42.524;12.052;2023-03-22T07:31:10;96722.25;;;11.72;100.00
56944;BME280;42848;42.524;12.052;2023-03-22T07:33:37;96726.72;;;11.67;100.00
56944;BME280;42848;42.524;12.052;2023-03-22T07:36:04;96725.22;;;11.79;100.00
56944;BME280;42848;42.524;12.052;2023-03-22T07:38:30;96724.00;;;11.67;100.00
56944;BME280;42848;42.524;12.052;2023-03-22T07:40:56;96722.28;;;11.63;100.00
56944;BME280;42848;42.524;12.052;2023-03-22T07:43:22;96724.63;;;11.82;100.00
56944;BME280;42848;42.524;12.052;2023-03-22T07:45:48;96727.34;;;11.73;100.00
56944;BME280;42848;42.524;12.052;2023-03-22T07:48:16;96724.53;;;11.99;100.00
56944;BME280;42848;42.524;12.052;2023-03-22T07:50:41;96729.06;;;11.86;100.00
56944;BME280;42848;42.524;12.052;2023-03-22T07:53:08;96727.94;;;11.79;100.00
56944;BME280;42848;42.524;12.052;2023-03-22T07:55:35;96726.81;;;11.88;100.00
56944;BME280;42848;42.524;12.052;2023-03-22T07:58:01;96725.66;;;11.98;100.00
56944;BME280;42848;42.524;12.052;2023-03-22T08:00:28;96738.59;;;12.01;100.00
56944;BME280;42848;42.524;12.052;2023-03-22T08:02:54;96729.69;;;11.92;100.00
56944;BME280;42848;42.524;12.052;2023-03-22T08:05:19;96735.97;;;12.13;100.00
56944;BME280;42848;42.524;12.052;2023-03-22T08:07:49;96731.59;;;12.21;100.00
56944;BME280;42848;42.524;12.052;2023-03-22T08:10:16;96738.53;;;12.10;100.00
56944;BME280;42848;42.524;12.052;2023-03-22T08:12:42;96729.94;;;12.08;100.00
56944;BME280;42848;42.524;12.052;2023-03-22T08:15:08;96741.84;;;12.15;100.00
56944;BME280;42848;42.524;12.052;2023-03-22T08:17:35;96744.00;;;12.31;100.00
56944;BME280;42848;42.524;12.052;2023-03-22T08:20:01;96746.16;;;12.46;100.00
56944;BME280;42848;42.524;12.052;2023-03-22T08:22:31;96741.13;;;12.57;100.00
56944;BME280;42848;42.524;12.052;2023-03-22T08:24:56;96730.75;;;12.50;100.00
56944;BME280;42848;42.524;12.052;2023-03-22T08:27:22;96733.94;;;12.52;100.00
56944;BME280;42848;42.524;12.052;2023-03-22T08:29:48;96738.19;;;12.41;100.00
56944;BME280;42848;42.524;12.052;2023-03-22T08:32:14;96739.00;;;12.62;100.00
56944;BME280;42848;42.524;12.052;2023-03-22T08:34:41;96739.06;;;12.74;100.00
56944;BME280;42848;42.524;12.052;2023-03-22T08:37:09;96743.91;;;12.69;100.00
56944;BME280;42848;42.524;12.052;2023-03-22T08:39:35;96742.69;;;12.78;100.00
56944;BME280;42848;42.524;12.052;2023-03-22T08:42:02;96737.06;;;12.84;100.00
56944;BME280;42848;42.524;12.052;2023-03-22T08:44:28;96746.03;;;12.84;100.00
56944;BME280;42848;42.524;12.052;2023-03-22T08:46:54;96755.78;;;12.85;100.00
56944;BME280;42848;42.524;12.052;2023-03-22T08:49:20;96749.84;;;13.04;100.00
56944;BME280;42848;42.524;12.052;2023-03-22T08:51:46;96747.03;;;13.13;100.00
56944;BME280;42848;42.524;12.052;2023-03-22T08:54:12;96747.84;;;13.13;100.00
56944;BME280;42848;42.524;12.052;2023-03-22T08:56:38;96747.84;;;13.13;100.00
56944;BME280;42848;42.524;12.052;2023-03-22T08:59:05;96751.16;;;13.19;100.00
56944;BME280;42848;42.524;12.052;2023-03-22T09:01:31;96745.56;;;13.15;100.00
56944;BME280;42848;42.524;12.052;2023-03-22T09:03:57;96743.03;;;13.31;100.00
56944;BME280;42848;42.524;12.052;2023-03-22T09:06:23;96739.53;;;13.43;100.00
56944;BME280;42848;42.524;12.052;2023-03-22T09:08:51;96738.19;;;13.36;100.00
56944;BME280;42848;42.524;12.052;2023-03-22T09:11:17;96737.84;;;13.38;100.00
56944;BME280;42848;42.524;12.052;2023-03-22T09:13:43;96746.59;;;13.44;100.00
56944;BME280;42848;42.524;12.052;2023-03-22T09:16:09;96741.38;;;13.38;100.00
56944;BME280;42848;42.524;12.052;2023-03-22T09:18:36;96737.06;;;13.62;100.00
56944;BME280;42848;42.524;12.052;2023-03-22T09:21:03;96746.53;;;13.64;100.00
56944;BME280;42848;42.524;12.052;2023-03-22T09:23:30;96749.59;;;13.63;100.00
56944;BME280;42848;42.524;12.052;2023-03-22T09:25:59;96753.00;;;13.60;100.00
56944;BME280;42848;42.524;12.052;2023-03-22T09:28:27;96738.09;;;13.57;100.00
56944;BME280;42848;42.524;12.052;2023-03-22T09:30:53;96750.31;;;13.72;100.00
56944;BME280;42848;42.524;12.052;2023-03-22T09:33:18;96750.72;;;13.62;100.00
56944;BME280;42848;42.524;12.052;2023-03-22T09:35:44;96744.47;;;13.61;100.00
56944;BME280;42848;42.524;12.052;2023-03-22T09:38:11;96750.50;;;13.67;100.00
56944;BME280;42848;42.524;12.052;2023-03-22T09:40:56;96751.41;;;13.59;100.00
56944;BME280;42848;42.524;12.052;2023-03-22T09:43:28;96749.81;;;13.58;100.00
56944;BME280;42848;42.524;12.052;2023-03-22T09:45:55;96747.78;;;13.67;100.00
56944;BME280;42848;42.524;12.052;2023-03-22T09:48:35;96740.75;;;13.78;100.00
56944;BME280;42848;42.524;12.052;2023-03-22T09:51:04;96738.00;;;13.66;100.00
56944;BME280;42848;42.524;12.052;2023-03-22T09:53:31;96736.91;;;13.91;100.00
56944;BME280;42848;42.524;12.052;2023-03-22T09:56:12;96733.00;;;13.80;100.00
56944;BME280;42848;42.524;12.052;2023-03-22T09:58:51;96732.56;;;13.90;100.00
56944;BME280;42848;42.524;12.052;2023-03-22T10:04:41;96734.72;;;14.09;100.00
56944;BME280;42848;42.524;12.052;2023-03-22T10:07:24;96735.28;;;14.03;100.00
56944;BME280;42848;42.524;12.052;2023-03-22T10:10:02;96725.28;;;13.94;100.00
56944;BME280;42848;42.524;12.052;2023-03-22T10:12:49;96729.59;;;13.95;100.00
56944;BME280;42848;42.524;12.052;2023-03-22T10:15:39;96731.19;;;13.72;100.00
56944;BME280;42848;42.524;12.052;2023-03-22T10:18:10;96725.72;;;13.97;100.00
56944;BME280;42848;42.524;12.052;2023-03-22T10:20:39;96725.75;;;14.09;100.00
56944;BME280;42848;42.524;12.052;2023-03-22T10:23:13;96720.38;;;14.24;100.00
56944;BME280;42848;42.524;12.052;2023-03-22T10:25:41;96712.97;;;14.25;100.00
56944;BME280;42848;42.524;12.052;2023-03-22T10:28:17;96718.63;;;14.44;100.00
56944;BME280;42848;42.524;12.052;2023-03-22T10:30:47;96719.22;;;14.38;100.00
56944;BME280;42848;42.524;12.052;2023-03-22T10:33:43;96714.34;;;14.31;100.00
56944;BME280;42848;42.524;12.052;2023-03-22T10:36:17;96715.25;;;14.23;100.00
56944;BME280;42848;42.524;12.052;2023-03-22T10:38:51;96713.75;;;14.26;100.00
56944;BME280;42848;42.524;12.052;2023-03-22T10:41:19;96717.03;;;14.43;100.00
56944;BME280;42848;42.524;12.052;2023-03-22T10:43:49;96711.63;;;14.71;100.00
56944;BME280;42848;42.524;12.052;2023-03-22T10:46:23;96713.03;;;14.65;100.00
56944;BME280;42848;42.524;12.052;2023-03-22T10:48:52;96707.88;;;14.76;100.00
56944;BME280;42848;42.524;12.052;2023-03-22T10:51:31;96705.28;;;14.67;100.00
56944;BME280;42848;42.524;12.052;2023-03-22T10:54:00;96700.84;;;14.75;100.00
56944;BME280;42848;42.524;12.052;2023-03-22T10:56:26;96711.25;;;14.57;100.00
56944;BME280;42848;42.524;12.052;2023-03-22T10:58:54;96708.47;;;14.69;100.00
56944;BME280;42848;42.524;12.052;2023-03-22T11:04:08;96708.09;;;14.83;100.00
56944;BME280;42848;42.524;12.052;2023-03-22T11:06:39;96726.28;;;14.91;100.00
56944;BME280;42848;42.524;12.052;2023-03-22T11:09:19;96708.97;;;14.87;100.00
56944;BME280;42848;42.524;12.052;2023-03-22T11:11:56;96710.19;;;15.02;100.00
56944;BME280;42848;42.524;12.052;2023-03-22T11:14:46;96708.09;;;15.27;100.00
56944;BME280;42848;42.524;12.052;2023-03-22T11:17:14;96705.88;;;15.17;100.00
56944;BME280;42848;42.524;12.052;2023-03-22T11:20:03;96703.13;;;15.17;100.00
56944;BME280;42848;42.524;12.052;2023-03-22T11:22:37;96711.66;;;15.27;100.00
56944;BME280;42848;42.524;12.052;2023-03-22T11:25:17;96703.59;;;15.19;100.00
56944;BME280;42848;42.524;12.052;2023-03-22T11:27:51;96706.63;;;15.29;100.00
56944;BME280;42848;42.524;12.052;2023-03-22T11:30:24;96706.97;;;15.28;100.00
56944;BME280;42848;42.524;12.052;2023-03-22T11:35:25;96697.66;;;15.60;100.00
56944;BME280;42848;42.524;12.052;2023-03-22T11:37:53;96698.16;;;15.50;100.00
56944;BME280;42848;42.524;12.052;2023-03-22T11:40:22;96701.72;;;15.67;99.26
56944;BME280;42848;42.524;12.052;2023-03-22T11:42:53;96693.78;;;15.61;92.32
56944;BME280;42848;42.524;12.052;2023-03-22T11:45:31;96691.22;;;15.69;86.75
56944;BME280;42848;42.524;12.052;2023-03-22T11:48:02;96690.69;;;15.79;82.16
56944;BME280;42848;42.524;12.052;2023-03-22T11:50:31;96692.56;;;15.75;80.64
56944;BME280;42848;42.524;12.052;2023-03-22T11:53:03;96692.63;;;15.94;83.04
56944;BME280;42848;42.524;12.052;2023-03-22T11:55:34;96692.19;;;15.92;74.23
56944;BME280;42848;42.524;12.052;2023-03-22T11:58:05;96690.78;;;15.82;76.89
56944;BME280;42848;42.524;12.052;2023-03-22T12:00:34;96693.53;;;15.82;70.54
56944;BME280;42848;42.524;12.052;2023-03-22T12:03:10;96686.00;;;15.95;77.24
56944;BME280;42848;42.524;12.052;2023-03-22T12:05:41;96693.59;;;16.02;80.74
56944;BME280;42848;42.524;12.052;2023-03-22T12:08:42;96689.97;;;15.98;76.63
56944;BME280;42848;42.524;12.052;2023-03-22T12:11:14;96690.84;;;16.02;81.85
56944;BME280;42848;42.524;12.052;2023-03-22T12:13:48;96682.00;;;16.08;81.75
56944;BME280;42848;42.524;12.052;2023-03-22T12:16:24;96685.69;;;16.16;80.73
56944;BME280;42848;42.524;12.052;2023-03-22T12:21:27;96677.41;;;16.12;81.61
56944;BME280;42848;42.524;12.052;2023-03-22T12:23:58;96669.00;;;16.21;84.26
56944;BME280;42848;42.524;12.052;2023-03-22T12:26:26;96668.38;;;16.28;85.62
56944;BME280;42848;42.524;12.052;2023-03-22T12:31:30;96669.34;;;16.19;82.59
56944;BME280;42848;42.524;12.052;2023-03-22T12:34:00;96663.47;;;16.37;85.87
56944;BME280;42848;42.524;12.052;2023-03-22T12:36:42;96666.66;;;16.39;82.50
56944;BME280;42848;42.524;12.052;2023-03-22T12:39:39;96665.84;;;16.38;83.55
56944;BME280;42848;42.524;12.052;2023-03-22T12:42:35;96656.38;;;16.36;81.32
56944;BME280;42848;42.524;12.052;2023-03-22T12:45:16;96655.13;;;16.49;86.47
56944;BME280;42848;42.524;12.052;2023-03-22T12:47:54;96659.41;;;16.31;82.67
56944;BME280;42848;42.524;12.052;2023-03-22T12:50:24;96660.59;;;16.49;81.28
56944;BME280;42848;42.524;12.052;2023-03-22T12:52:53;96649.91;;;16.44;83.12
56944;BME280;42848;42.524;12.052;2023-03-22T12:55:22;96645.00;;;16.53;82.77
56944;BME280;42848;42.524;12.052;2023-03-22T12:57:49;96644.06;;;16.45;81.91
56944;BME280;42848;42.524;12.052;2023-03-22T13:00:37;96650.78;;;16.48;83.56
56944;BME280;42848;42.524;12.052;2023-03-22T13:03:58;96639.81;;;16.48;81.19
56944;BME280;42848;42.524;12.052;2023-03-22T13:09:33;96644.16;;;16.49;82.71
56944;BME280;42848;42.524;12.052;2023-03-22T13:30:23;96632.88;;;17.12;100.00
56944;BME280;42848;42.524;12.052;2023-03-22T13:32:52;96628.97;;;17.13;100.00
56944;BME280;42848;42.524;12.052;2023-03-22T13:38:31;96625.06;;;17.14;100.00
56944;BME280;42848;42.524;12.052;2023-03-22T14:04:56;96619.72;;;16.79;100.00
56944;BME280;42848;42.524;12.052;2023-03-22T14:12:54;96610.31;;;17.22;100.00
56944;BME280;42848;42.524;12.052;2023-03-22T14:15:25;96615.31;;;17.40;100.00
56944;BME280;42848;42.524;12.052;2023-03-22T14:18:26;96607.63;;;17.49;100.00
56944;BME280;42848;42.524;12.052;2023-03-22T14:20:56;96599.94;;;17.58;100.00
56944;BME280;42848;42.524;12.052;2023-03-22T14:23:30;96596.94;;;17.67;100.00
56944;BME280;42848;42.524;12.052;2023-03-22T14:26:05;96601.81;;;17.54;100.00
56944;BME280;42848;42.524;12.052;2023-03-22T14:28:37;96603.38;;;17.74;100.00
56944;BME280;42848;42.524;12.052;2023-03-22T14:31:12;96605.66;;;17.72;100.00
56944;BME280;42848;42.524;12.052;2023-03-22T14:33:39;96595.91;;;17.75;100.00
56944;BME280;42848;42.524;12.052;2023-03-22T14:36:12;96586.97;;;17.81;100.00
56944;BME280;42848;42.524;12.052;2023-03-22T14:38:44;96588.25;;;17.87;100.00
56944;BME280;42848;42.524;12.052;2023-03-22T14:41:20;96586.25;;;17.84;100.00